McZena, Ohio
Current Conditions -  °F | °C
As of 7:09 PM on Friday 31 Oct 2014 (Local Time) from KBJJ Reporting Station
Moderate Rain Moderate Rain  
Wind Chill: 41°   Ceiling: 1000
Heat Index: 44°   Visibility: 4mi
Dew Point: 40°   Wind: 6mph
Humidity: 85%   Direction: 20°NNE
Pressure: 29.88"   Gusts: NA
Location:  40.6482°N, 82.138°W
Report Text: KBJJ 312309Z AUTO 02005KT 4SM RA BR BKN010 BKN022 OVC028 07/04 A2988 RMK AO2 P0002 T00670044 TSNO
Loading
Personal Weather Stations






























Interactive Weather Map
Tropical Storm Tracking
New forecast layout! Learn more

10-Day Weather Forecast

Advertisements
Track Severe Weather on mobile